Time;durP1;ratioP1;P1;durP2;ratioP2;P2;SDS_P1;SDS_P2;PMS_P1;PMS_P2;Temp;Humidity;BMP_temperature;BMP_pressure;BME280_temperature;BME280_humidity;BME280_pressure;Samples;Min_cycle;Max_cycle;Signal;HPM_P1;HPM_P2
2023/09/30 00:57:01;;;;;;;1999.90;999.90;;;;;;;;;;5802445;22;20722;-69
2023/09/30 00:59:46;;;;;;;1999.90;999.90;;;;;;;;;;4995701;28;20213;-69
2023/09/30 01:02:31;;;;;;;1999.90;999.90;;;;;;;;;;4992097;28;20579;-69
2023/09/30 01:05:16;;;;;;;1999.90;999.90;;;;;;;;;;4998582;28;20217;-69
2023/09/30 01:08:02;;;;;;;1999.90;999.90;;;;;;;;;;4983222;28;20415;-70
2023/09/30 01:10:48;;;;;;;1999.90;999.90;;;;;;;;;;4971462;28;20218;-69
2023/09/30 01:13:35;;;;;;;1999.90;999.90;;;;;;;;;;4956885;28;20263;-69
2023/09/30 01:16:20;;;;;;;1999.90;999.90;;;;;;;;;;4956373;28;20256;-69
2023/09/30 01:19:05;;;;;;;1999.90;999.90;;;;;;;;;;4956919;28;20235;-69
2023/09/30 01:21:51;;;;;;;1999.90;999.90;;;;;;;;;;4968161;28;20283;-69
2023/09/30 01:24:40;;;;;;;1999.90;999.90;;;;;;;;;;4976188;28;20238;-68
2023/09/30 01:27:25;;;;;;;1999.90;999.90;;;;;;;;;;4975864;28;20826;-69
2023/09/30 01:30:11;;;;;;;1999.90;999.90;;;;;;;;;;4975911;28;20697;-69
2023/09/30 01:32:56;;;;;;;1999.90;999.90;;;;;;;;;;4975906;28;20209;-69
2023/09/30 01:35:41;;;;;;;1999.90;999.90;;;;;;;;;;4974899;28;20273;-69
2023/09/30 01:38:27;;;;;;;1999.90;999.90;;;;;;;;;;4981754;28;20746;-69
2023/09/30 01:41:12;;;;;;;1999.90;999.90;;;;;;;;;;4992431;28;20316;-70
2023/09/30 01:43:57;;;;;;;1999.90;999.90;;;;;;;;;;4991181;28;20225;-69
2023/09/30 01:46:42;;;;;;;1999.90;999.90;;;;;;;;;;4994877;28;20315;-67
2023/09/30 01:49:27;;;;;;;1999.90;999.90;;;;;;;;;;4991660;28;20237;-70
2023/09/30 01:52:12;;;;;;;1999.90;999.90;;;;;;;;;;4975696;28;20255;-70
2023/09/30 01:54:58;;;;;;;1999.90;999.90;;;;;;;;;;4989599;28;21462;-70
2023/09/30 01:57:43;;;;;;;1999.90;999.90;;;;;;;;;;4981128;28;20247;-69
2023/09/30 02:00:29;;;;;;;1999.90;999.90;;;;;;;;;;4986877;28;20210;-70
2023/09/30 02:03:14;;;;;;;1999.90;999.90;;;;;;;;;;4984729;28;20217;-70
2023/09/30 02:05:59;;;;;;;1999.90;999.90;;;;;;;;;;4990291;28;20592;-70
2023/09/30 02:08:44;;;;;;;1999.90;999.90;;;;;;;;;;4984527;28;20298;-70
2023/09/30 02:11:31;;;;;;;1999.90;999.90;;;;;;;;;;4967473;28;20282;-70
2023/09/30 02:14:15;;;;;;;1999.90;999.90;;;;;;;;;;4971433;28;20223;-70
2023/09/30 02:17:00;;;;;;;1999.90;999.90;;;;;;;;;;4973464;28;20286;-70
2023/09/30 02:19:46;;;;;;;1999.90;999.90;;;;;;;;;;4970923;28;20435;-69
2023/09/30 02:22:31;;;;;;;1999.90;999.90;;;;;;;;;;4963751;28;20287;-70
2023/09/30 02:25:16;;;;;;;1999.90;999.90;;;;;;;;;;4974588;28;20253;-70
2023/09/30 02:28:02;;;;;;;1999.90;999.90;;;;;;;;;;4973680;28;20232;-69
2023/09/30 02:30:48;;;;;;;1999.90;999.90;;;;;;;;;;4969229;28;20314;-70
2023/09/30 02:33:35;;;;;;;1999.90;999.90;;;;;;;;;;4973747;28;20217;-69
2023/09/30 02:36:20;;;;;;;1999.90;999.90;;;;;;;;;;4970609;28;20634;-69
2023/09/30 02:39:05;;;;;;;1999.90;999.90;;;;;;;;;;4970870;28;20206;-70
2023/09/30 02:41:52;;;;;;;1999.90;999.90;;;;;;;;;;4959997;28;20226;-70
2023/09/30 02:44:38;;;;;;;1999.90;999.90;;;;;;;;;;4966751;28;20490;-70
2023/09/30 02:47:23;;;;;;;1999.90;999.90;;;;;;;;;;4973524;28;20606;-69
2023/09/30 02:50:11;;;;;;;1999.90;999.90;;;;;;;;;;4974435;28;20214;-69
2023/09/30 02:52:56;;;;;;;1999.90;999.90;;;;;;;;;;4973151;28;20203;-70
2023/09/30 02:55:41;;;;;;;1999.90;999.90;;;;;;;;;;4954769;29;20262;-69
2023/09/30 02:58:25;;;;;;;1999.90;999.90;;;;;;;;;;4971834;28;20367;-69
2023/09/30 03:01:16;;;;;;;1999.90;999.90;;;;;;;;;;4973199;28;20219;-69
2023/09/30 03:04:01;;;;;;;1999.90;999.90;;;;;;;;;;4969814;28;20722;-70
2023/09/30 03:06:48;;;;;;;1999.90;999.90;;;;;;;;;;4970860;28;20363;-70
2023/09/30 03:09:33;;;;;;;1999.90;999.90;;;;;;;;;;4974037;28;20603;-69
2023/09/30 03:12:18;;;;;;;1999.90;999.90;;;;;;;;;;4972080;28;20208;-69
2023/09/30 03:15:04;;;;;;;1999.90;999.90;;;;;;;;;;4973787;28;20219;-70
2023/09/30 03:17:50;;;;;;;1999.90;999.90;;;;;;;;;;4972713;28;20226;-70
2023/09/30 03:20:36;;;;;;;1999.90;999.90;;;;;;;;;;4954454;28;20580;-69
2023/09/30 03:23:21;;;;;;;1999.90;999.90;;;;;;;;;;4970366;28;20215;-70
2023/09/30 03:26:09;;;;;;;1999.90;999.90;;;;;;;;;;4970370;28;20298;-69
2023/09/30 03:28:54;;;;;;;1999.90;999.90;;;;;;;;;;4968305;28;20214;-70
2023/09/30 03:31:39;;;;;;;1999.90;999.90;;;;;;;;;;4972052;28;20458;-69
2023/09/30 03:34:26;;;;;;;1999.90;999.90;;;;;;;;;;4973559;28;20746;-70
2023/09/30 03:37:11;;;;;;;1999.90;999.90;;;;;;;;;;4971632;28;20609;-70
2023/09/30 03:39:56;;;;;;;1999.90;999.90;;;;;;;;;;4968227;28;20306;-70
2023/09/30 03:42:43;;;;;;;1999.90;999.90;;;;;;;;;;4970885;28;20746;-70
2023/09/30 03:45:27;;;;;;;1999.90;999.90;;;;;;;;;;4971186;28;20853;-69
2023/09/30 03:48:12;;;;;;;1999.90;999.90;;;;;;;;;;4970142;28;20226;-70
2023/09/30 03:51:08;;;;;;;1999.90;999.90;;;;;;;;;;4972297;28;20214;-70
2023/09/30 03:53:53;;;;;;;1999.90;999.90;;;;;;;;;;4966147;28;20211;-70
2023/09/30 03:56:38;;;;;;;1999.90;999.90;;;;;;;;;;4970509;28;20466;-69
2023/09/30 03:59:23;;;;;;;1999.90;999.90;;;;;;;;;;4971296;28;20209;-70
2023/09/30 04:02:08;;;;;;;1999.90;999.90;;;;;;;;;;4973111;28;20217;-69
2023/09/30 04:04:55;;;;;;;1999.90;999.90;;;;;;;;;;4973126;28;20211;-70
2023/09/30 04:07:42;;;;;;;1999.90;999.90;;;;;;;;;;4965403;28;20726;-70
2023/09/30 04:10:29;;;;;;;1999.90;999.90;;;;;;;;;;4973012;28;20297;-69
2023/09/30 04:13:14;;;;;;;1999.90;999.90;;;;;;;;;;4972712;28;20876;-68
2023/09/30 04:15:59;;;;;;;1999.90;999.90;;;;;;;;;;4972685;28;20356;-69
2023/09/30 04:18:44;;;;;;;1999.90;999.90;;;;;;;;;;4972295;28;20302;-70
2023/09/30 04:21:33;;;;;;;1999.90;999.90;;;;;;;;;;4971960;28;20220;-69
2023/09/30 04:24:20;;;;;;;1999.90;999.90;;;;;;;;;;4971911;28;20216;-70
2023/09/30 04:27:07;;;;;;;1999.90;999.90;;;;;;;;;;4970199;28;20279;-69
2023/09/30 04:29:53;;;;;;;1999.90;999.90;;;;;;;;;;4965185;28;20585;-69
2023/09/30 04:32:39;;;;;;;1999.90;999.90;;;;;;;;;;4976828;28;20338;-69
2023/09/30 04:35:25;;;;;;;1999.90;999.90;;;;;;;;;;4975847;28;20234;-70
2023/09/30 04:38:10;;;;;;;1999.90;999.90;;;;;;;;;;4973548;28;20359;-69
2023/09/30 04:40:57;;;;;;;1999.90;999.90;;;;;;;;;;4968183;28;20223;-69
2023/09/30 04:43:43;;;;;;;1999.90;999.90;;;;;;;;;;4968744;28;20703;-70
2023/09/30 04:46:28;;;;;;;1999.90;999.90;;;;;;;;;;4974094;28;20750;-69
2023/09/30 04:49:13;;;;;;;1999.90;999.90;;;;;;;;;;4976679;28;20301;-69
2023/09/30 04:51:59;;;;;;;1999.90;999.90;;;;;;;;;;4970713;28;20690;-69
2023/09/30 04:54:45;;;;;;;1999.90;999.90;;;;;;;;;;4957332;28;20313;-68
2023/09/30 04:57:32;;;;;;;1999.90;999.90;;;;;;;;;;4974267;28;20715;-68
2023/09/30 05:00:17;;;;;;;1999.90;999.90;;;;;;;;;;4974965;28;20214;-69
2023/09/30 05:03:02;;;;;;;1999.90;999.90;;;;;;;;;;4970733;28;20812;-68
2023/09/30 05:05:47;;;;;;;1999.90;999.90;;;;;;;;;;4974917;28;20327;-69
2023/09/30 05:08:32;;;;;;;1999.90;999.90;;;;;;;;;;4975221;28;21059;-69
2023/09/30 05:11:17;;;;;;;1999.90;999.90;;;;;;;;;;4988488;28;20291;-69
2023/09/30 05:14:05;;;;;;;1999.90;999.90;;;;;;;;;;4990333;28;20333;-69
2023/09/30 05:16:49;;;;;;;1999.90;999.90;;;;;;;;;;4982985;28;20232;-70
2023/09/30 05:19:36;;;;;;;1999.90;999.90;;;;;;;;;;4993711;28;20730;-69
2023/09/30 05:22:23;;;;;;;1999.90;999.90;;;;;;;;;;4991482;28;20217;-68
2023/09/30 05:25:09;;;;;;;1999.90;999.90;;;;;;;;;;4975261;28;20689;-68
2023/09/30 05:27:54;;;;;;;1999.90;999.90;;;;;;;;;;4988195;28;20351;-69
2023/09/30 05:30:41;;;;;;;1999.90;999.90;;;;;;;;;;4984710;28;20300;-69
2023/09/30 05:33:27;;;;;;;1999.90;999.90;;;;;;;;;;4992262;28;20578;-70
2023/09/30 05:36:13;;;;;;;1999.90;999.90;;;;;;;;;;4987815;28;20622;-69
2023/09/30 05:38:58;;;;;;;1999.90;999.90;;;;;;;;;;4980766;28;20216;-69
2023/09/30 05:41:43;;;;;;;1999.90;999.90;;;;;;;;;;4990845;28;20219;-69
2023/09/30 05:44:28;;;;;;;1999.90;999.90;;;;;;;;;;4972464;28;20341;-69
2023/09/30 05:47:15;;;;;;;1999.90;999.90;;;;;;;;;;4974658;28;20225;-69
2023/09/30 05:50:00;;;;;;;1999.90;999.90;;;;;;;;;;4981903;28;20260;-69
2023/09/30 05:52:45;;;;;;;1999.90;999.90;;;;;;;;;;4989214;28;20231;-69
2023/09/30 05:55:30;;;;;;;1999.90;999.90;;;;;;;;;;4994109;28;20472;-70
2023/09/30 05:58:15;;;;;;;1999.90;999.90;;;;;;;;;;4983297;28;20475;-69
2023/09/30 06:01:00;;;;;;;1999.90;999.90;;;;;;;;;;4968870;28;20207;-69
2023/09/30 06:03:47;;;;;;;1999.90;999.90;;;;;;;;;;4989612;28;20722;-68
2023/09/30 06:06:32;;;;;;;1999.90;999.90;;;;;;;;;;4994379;28;20234;-68
2023/09/30 06:09:17;;;;;;;1999.90;999.90;;;;;;;;;;4994307;28;20212;-68
2023/09/30 06:12:06;;;;;;;1999.90;999.90;;;;;;;;;;4981505;28;20821;-69
2023/09/30 06:14:53;;;;;;;1999.90;999.90;;;;;;;;;;4986018;28;20212;-68
2023/09/30 06:17:37;;;;;;;1999.90;999.90;;;;;;;;;;4977881;28;20767;-69
2023/09/30 06:20:26;;;;;;;1999.90;999.90;;;;;;;;;;4993156;28;20530;-68
2023/09/30 06:23:11;;;;;;;1999.90;999.90;;;;;;;;;;4980258;28;20211;-68
2023/09/30 06:25:55;;;;;;;1999.90;999.90;;;;;;;;;;4986742;28;20218;-69
2023/09/30 06:28:41;;;;;;;1999.90;999.90;;;;;;;;;;4984291;28;20215;-69
2023/09/30 06:31:28;;;;;;;1999.90;999.90;;;;;;;;;;4977898;28;20815;-69
2023/09/30 06:34:12;;;;;;;1999.90;999.90;;;;;;;;;;4969488;28;20259;-69
2023/09/30 06:36:59;;;;;;;1999.90;999.90;;;;;;;;;;4974517;28;20234;-68
2023/09/30 06:39:44;;;;;;;1999.90;999.90;;;;;;;;;;4978426;28;20312;-69
2023/09/30 06:42:28;;;;;;;1999.90;999.90;;;;;;;;;;4990165;28;20258;-70
2023/09/30 06:45:13;;;;;;;1999.90;999.90;;;;;;;;;;4991128;28;20630;-69
2023/09/30 06:47:58;;;;;;;1999.90;999.90;;;;;;;;;;4985053;28;20422;-69
2023/09/30 06:50:45;;;;;;;1999.90;999.90;;;;;;;;;;4978907;28;20271;-70
2023/09/30 06:53:31;;;;;;;1999.90;999.90;;;;;;;;;;4973632;28;20208;-69
2023/09/30 06:56:16;;;;;;;1999.90;999.90;;;;;;;;;;4973790;28;20937;-70
2023/09/30 06:59:02;;;;;;;1999.90;999.90;;;;;;;;;;4973922;28;20351;-69
2023/09/30 07:01:47;;;;;;;1999.90;999.90;;;;;;;;;;4973975;28;20208;-69
2023/09/30 07:04:31;;;;;;;1999.90;999.90;;;;;;;;;;4973895;28;20292;-69
2023/09/30 07:07:16;;;;;;;1999.90;999.90;;;;;;;;;;4973663;28;20291;-70
2023/09/30 07:10:04;;;;;;;1999.90;999.90;;;;;;;;;;4973872;28;20208;-71
2023/09/30 07:12:48;;;;;;;1999.90;999.90;;;;;;;;;;4974097;28;20347;-70
2023/09/30 07:15:33;;;;;;;1999.90;999.90;;;;;;;;;;4973501;28;20283;-69
2023/09/30 07:18:18;;;;;;;1999.90;999.90;;;;;;;;;;4973778;28;20732;-69
2023/09/30 07:21:04;;;;;;;1999.90;999.90;;;;;;;;;;4971855;28;20212;-69
2023/09/30 07:23:48;;;;;;;1999.90;999.90;;;;;;;;;;4970725;28;20708;-69
2023/09/30 07:26:35;;;;;;;1999.90;999.90;;;;;;;;;;4970892;28;20318;-69
2023/09/30 07:29:20;;;;;;;1999.90;999.90;;;;;;;;;;4971591;28;20268;-70
2023/09/30 07:32:05;;;;;;;1999.90;999.90;;;;;;;;;;4963813;28;20908;-69
2023/09/30 07:34:50;;;;;;;1999.90;999.90;;;;;;;;;;4970743;28;20458;-70
2023/09/30 07:37:35;;;;;;;1999.90;999.90;;;;;;;;;;4971315;28;20223;-70
2023/09/30 07:40:21;;;;;;;1999.90;999.90;;;;;;;;;;4971032;28;20740;-69
2023/09/30 07:43:07;;;;;;;1999.90;999.90;;;;;;;;;;4966383;28;20352;-68
2023/09/30 07:45:52;;;;;;;1999.90;999.90;;;;;;;;;;4972871;28;20385;-69
2023/09/30 07:48:38;;;;;;;1999.90;999.90;;;;;;;;;;4971655;28;20200;-69
2023/09/30 07:51:23;;;;;;;1999.90;999.90;;;;;;;;;;4973380;28;20204;-69
2023/09/30 07:54:08;;;;;;;1999.90;999.90;;;;;;;;;;4970703;28;20215;-70
2023/09/30 07:56:53;;;;;;;1999.90;999.90;;;;;;;;;;4985622;28;20335;-69
2023/09/30 07:59:40;;;;;;;1999.90;999.90;;;;;;;;;;4988152;28;20236;-70
2023/09/30 08:02:27;;;;;;;1999.90;999.90;;;;;;;;;;4992485;28;20294;-69
2023/09/30 08:05:12;;;;;;;1999.90;999.90;;;;;;;;;;4970510;28;20263;-70
2023/09/30 08:07:57;;;;;;;1999.90;999.90;;;;;;;;;;4972794;28;20359;-70
2023/09/30 08:10:43;;;;;;;1999.90;999.90;;;;;;;;;;4969343;28;20693;-69
2023/09/30 08:13:29;;;;;;;1999.90;999.90;;;;;;;;;;4972248;28;20223;-69
2023/09/30 08:16:16;;;;;;;1999.90;999.90;;;;;;;;;;4966399;28;20700;-69
2023/09/30 08:19:00;;;;;;;1999.90;999.90;;;;;;;;;;4972870;28;20231;-70
2023/09/30 08:21:46;;;;;;;1999.90;999.90;;;;;;;;;;4973094;28;20332;-69
2023/09/30 08:24:31;;;;;;;1999.90;999.90;;;;;;;;;;4972007;28;20688;-70
2023/09/30 08:27:16;;;;;;;1999.90;999.90;;;;;;;;;;4962344;28;20250;-70
2023/09/30 08:30:04;;;;;;;1999.90;999.90;;;;;;;;;;4972677;28;20223;-70
2023/09/30 08:32:51;;;;;;;1999.90;999.90;;;;;;;;;;4972428;28;20228;-70
2023/09/30 08:35:36;;;;;;;1999.90;999.90;;;;;;;;;;4972655;28;20682;-70
2023/09/30 08:38:21;;;;;;;1999.90;999.90;;;;;;;;;;4972474;28;20307;-70
2023/09/30 08:41:07;;;;;;;1999.90;999.90;;;;;;;;;;4964949;28;20223;-70
2023/09/30 08:43:52;;;;;;;1999.90;999.90;;;;;;;;;;4969305;28;20447;-70
2023/09/30 08:46:37;;;;;;;1999.90;999.90;;;;;;;;;;4968594;28;20310;-69
2023/09/30 08:49:25;;;;;;;1999.90;999.90;;;;;;;;;;4972764;28;20677;-70
2023/09/30 08:52:11;;;;;;;1999.90;999.90;;;;;;;;;;4965896;28;20208;-69
2023/09/30 08:54:56;;;;;;;1999.90;999.90;;;;;;;;;;4972490;28;20340;-70
2023/09/30 08:57:41;;;;;;;1999.90;999.90;;;;;;;;;;4972273;28;20258;-69
2023/09/30 09:00:26;;;;;;;1999.90;999.90;;;;;;;;;;4972708;28;20211;-71
2023/09/30 09:03:11;;;;;;;1999.90;999.90;;;;;;;;;;4972367;28;20582;-72
2023/09/30 09:05:59;;;;;;;1999.90;999.90;;;;;;;;;;4972331;28;20220;-70
2023/09/30 09:08:44;;;;;;;1999.90;999.90;;;;;;;;;;4972578;28;20212;-70
2023/09/30 09:11:37;;;;;;;1999.90;999.90;;;;;;;;;;4972528;28;20224;-71
2023/09/30 09:14:37;;;;;;;1999.90;999.90;;;;;;;;;;4972209;28;20215;-71
2023/09/30 09:17:22;;;;;;;1999.90;999.90;;;;;;;;;;4974243;28;20310;-71
2023/09/30 09:20:09;;;;;;;1999.90;999.90;;;;;;;;;;4975592;28;20329;-71
2023/09/30 09:23:00;;;;;;;1999.90;999.90;;;;;;;;;;4975680;28;20235;-71
2023/09/30 09:25:44;;;;;;;1999.90;999.90;;;;;;;;;;4975718;28;20283;-72
2023/09/30 09:28:34;;;;;;;1999.90;999.90;;;;;;;;;;4975799;28;20731;-71
2023/09/30 09:31:23;;;;;;;1999.90;999.90;;;;;;;;;;4975648;28;20208;-71
2023/09/30 09:34:14;;;;;;;1999.90;999.90;;;;;;;;;;4975674;28;20570;-72
2023/09/30 09:36:58;;;;;;;1999.90;999.90;;;;;;;;;;4975208;28;20228;-72
2023/09/30 09:39:51;;;;;;;1999.90;999.90;;;;;;;;;;4975590;28;20220;-72
2023/09/30 09:42:37;;;;;;;1999.90;999.90;;;;;;;;;;4975668;28;20212;-71
2023/09/30 09:45:23;;;;;;;1999.90;999.90;;;;;;;;;;4975407;28;20216;-71
2023/09/30 09:48:10;;;;;;;1999.90;999.90;;;;;;;;;;4975305;28;20228;-72
2023/09/30 09:50:55;;;;;;;1999.90;999.90;;;;;;;;;;4975410;28;20216;-72
2023/09/30 09:53:41;;;;;;;1999.90;999.90;;;;;;;;;;4975353;28;20716;-71
2023/09/30 09:56:28;;;;;;;1999.90;999.90;;;;;;;;;;4974202;28;20628;-72
2023/09/30 09:59:13;;;;;;;1999.90;999.90;;;;;;;;;;4974970;28;20599;-71
2023/09/30 10:01:59;;;;;;;1999.90;999.90;;;;;;;;;;4974870;28;20302;-71
2023/09/30 10:04:45;;;;;;;1999.90;999.90;;;;;;;;;;4975226;28;20211;-71
2023/09/30 10:07:31;;;;;;;1999.90;999.90;;;;;;;;;;4975152;28;20307;-72
2023/09/30 10:10:18;;;;;;;1999.90;999.90;;;;;;;;;;4975093;28;20213;-71
2023/09/30 10:13:05;;;;;;;1999.90;999.90;;;;;;;;;;4974591;28;20212;-71
2023/09/30 10:15:50;;;;;;;1999.90;999.90;;;;;;;;;;4974661;28;20714;-73
2023/09/30 10:18:59;;;;;;;1999.90;999.90;;;;;;;;;;4974896;28;20303;-72
2023/09/30 10:22:02;;;;;;;1999.90;999.90;;;;;;;;;;4974937;28;20291;-69
2023/09/30 10:24:48;;;;;;;1999.90;999.90;;;;;;;;;;4970936;28;20220;-69
2023/09/30 10:27:36;;;;;;;1999.90;999.90;;;;;;;;;;4968953;28;20634;-70
2023/09/30 10:30:23;;;;;;;1999.90;999.90;;;;;;;;;;4974120;28;20215;-70
2023/09/30 10:33:09;;;;;;;1999.90;999.90;;;;;;;;;;4974567;28;20591;-70
2023/09/30 10:35:54;;;;;;;1999.90;999.90;;;;;;;;;;4974403;28;20195;-69
2023/09/30 10:38:43;;;;;;;1999.90;999.90;;;;;;;;;;4972155;28;20239;-70
2023/09/30 10:41:48;;;;;;;1999.90;999.90;;;;;;;;;;4973493;28;20587;-70
2023/09/30 10:44:34;;;;;;;1999.90;999.90;;;;;;;;;;4966415;28;20339;-71
2023/09/30 10:47:39;;;;;;;1999.90;999.90;;;;;;;;;;4972154;28;20236;-69
2023/09/30 10:50:55;;;;;;;1999.90;999.90;;;;;;;;;;4969453;28;20204;-71
2023/09/30 10:53:45;;;;;;;1999.90;999.90;;;;;;;;;;4927374;29;20237;-71
2023/09/30 10:56:33;;;;;;;1999.90;999.90;;;;;;;;;;4967690;28;20227;-71
2023/09/30 10:59:19;;;;;;;1999.90;999.90;;;;;;;;;;4974202;28;20231;-70
2023/09/30 11:02:04;;;;;;;1999.90;999.90;;;;;;;;;;4971716;28;20477;-72
2023/09/30 11:04:51;;;;;;;1999.90;999.90;;;;;;;;;;4973051;28;20333;-70
2023/09/30 11:07:37;;;;;;;1999.90;999.90;;;;;;;;;;4966964;28;20239;-72
2023/09/30 11:10:23;;;;;;;1999.90;999.90;;;;;;;;;;4971729;28;20213;-71
2023/09/30 11:13:08;;;;;;;1999.90;999.90;;;;;;;;;;4972518;28;20217;-71
2023/09/30 11:16:00;;;;;;;1999.90;999.90;;;;;;;;;;4971091;28;20577;-71
2023/09/30 11:18:45;;;;;;;1999.90;999.90;;;;;;;;;;4967785;28;20598;-68
2023/09/30 11:21:33;;;;;;;1999.90;999.90;;;;;;;;;;4965487;28;20410;-71
2023/09/30 11:24:18;;;;;;;1999.90;999.90;;;;;;;;;;4973178;28;20238;-70
2023/09/30 11:27:04;;;;;;;1999.90;999.90;;;;;;;;;;4973475;28;20258;-70
2023/09/30 11:29:51;;;;;;;1999.90;999.90;;;;;;;;;;4971757;28;20299;-71
2023/09/30 11:32:36;;;;;;;1999.90;999.90;;;;;;;;;;4967815;28;20707;-71
2023/09/30 11:35:24;;;;;;;1999.90;999.90;;;;;;;;;;4973311;28;20269;-71
2023/09/30 11:38:11;;;;;;;1999.90;999.90;;;;;;;;;;4973157;28;20329;-71
2023/09/30 11:40:59;;;;;;;1999.90;999.90;;;;;;;;;;4973194;28;20217;-71
2023/09/30 11:43:59;;;;;;;1999.90;999.90;;;;;;;;;;4973173;28;20218;-70
2023/09/30 11:46:52;;;;;;;1999.90;999.90;;;;;;;;;;4973152;28;20354;-71
2023/09/30 11:49:38;;;;;;;1999.90;999.90;;;;;;;;;;4967529;28;20215;-70
2023/09/30 11:52:27;;;;;;;1999.90;999.90;;;;;;;;;;4973442;28;20604;-71
2023/09/30 11:55:13;;;;;;;1999.90;999.90;;;;;;;;;;4972524;28;20218;-71
2023/09/30 11:57:59;;;;;;;1999.90;999.90;;;;;;;;;;4971622;28;20242;-70
2023/09/30 12:00:43;;;;;;;1999.90;999.90;;;;;;;;;;4968007;28;20219;-71
2023/09/30 12:03:28;;;;;;;1999.90;999.90;;;;;;;;;;4954025;29;20214;-70
2023/09/30 12:06:13;;;;;;;1999.90;999.90;;;;;;;;;;4971508;28;20587;-72
2023/09/30 12:08:58;;;;;;;1999.90;999.90;;;;;;;;;;4969831;28;20213;-70
2023/09/30 12:11:45;;;;;;;1999.90;999.90;;;;;;;;;;4953884;28;20284;-70
2023/09/30 12:14:31;;;;;;;1999.90;999.90;;;;;;;;;;4959925;28;20441;-70
2023/09/30 12:17:15;;;;;;;1999.90;999.90;;;;;;;;;;4971506;28;20479;-71
2023/09/30 12:20:00;;;;;;;1999.90;999.90;;;;;;;;;;4972849;28;20588;-71
2023/09/30 12:22:45;;;;;;;1999.90;999.90;;;;;;;;;;4972067;28;20707;-71
2023/09/30 12:25:30;;;;;;;1999.90;999.90;;;;;;;;;;4963218;28;20932;-71
2023/09/30 12:28:17;;;;;;;1999.90;999.90;;;;;;;;;;4972385;28;20356;-71
2023/09/30 12:31:03;;;;;;;1999.90;999.90;;;;;;;;;;4972247;28;20284;-71
2023/09/30 12:33:50;;;;;;;1999.90;999.90;;;;;;;;;;4970759;28;20311;-70
2023/09/30 12:36:35;;;;;;;1999.90;999.90;;;;;;;;;;4968698;28;20243;-71
2023/09/30 12:39:23;;;;;;;1999.90;999.90;;;;;;;;;;4972642;28;20282;-72
2023/09/30 12:42:12;;;;;;;1999.90;999.90;;;;;;;;;;4972926;28;20286;-71
2023/09/30 12:44:58;;;;;;;1999.90;999.90;;;;;;;;;;4970040;28;20216;-71
2023/09/30 12:47:43;;;;;;;1999.90;999.90;;;;;;;;;;4964048;28;20232;-70
2023/09/30 12:50:28;;;;;;;1999.90;999.90;;;;;;;;;;4960625;28;20282;-71
2023/09/30 12:53:13;;;;;;;1999.90;999.90;;;;;;;;;;4974149;28;20229;-70
2023/09/30 12:55:59;;;;;;;1999.90;999.90;;;;;;;;;;4976324;28;20254;-70
2023/09/30 12:58:44;;;;;;;1999.90;999.90;;;;;;;;;;4976393;28;20329;-70
2023/09/30 13:01:34;;;;;;;1999.90;999.90;;;;;;;;;;4976298;28;20203;-70
2023/09/30 13:04:19;;;;;;;1999.90;999.90;;;;;;;;;;4976422;28;20208;-70
2023/09/30 13:07:03;;;;;;;1999.90;999.90;;;;;;;;;;4976244;28;20223;-70
2023/09/30 13:09:48;;;;;;;1999.90;999.90;;;;;;;;;;4976302;28;20221;-70
2023/09/30 13:12:33;;;;;;;1999.90;999.90;;;;;;;;;;4976097;28;20204;-70
2023/09/30 13:15:19;;;;;;;1999.90;999.90;;;;;;;;;;4976030;28;20249;-70
2023/09/30 13:18:05;;;;;;;1999.90;999.90;;;;;;;;;;4975829;28;20226;-70
2023/09/30 13:20:52;;;;;;;1999.90;999.90;;;;;;;;;;4976295;28;20217;-69
2023/09/30 13:23:37;;;;;;;1999.90;999.90;;;;;;;;;;4975957;28;20210;-69
2023/09/30 13:26:22;;;;;;;1999.90;999.90;;;;;;;;;;4975121;28;20403;-70
2023/09/30 13:29:09;;;;;;;1999.90;999.90;;;;;;;;;;4976212;28;20208;-70
2023/09/30 13:31:54;;;;;;;1999.90;999.90;;;;;;;;;;4976095;28;20208;-70
2023/09/30 13:34:40;;;;;;;1999.90;999.90;;;;;;;;;;4975842;28;20697;-71
2023/09/30 13:37:29;;;;;;;1999.90;999.90;;;;;;;;;;4975799;28;20232;-70
2023/09/30 13:40:14;;;;;;;1999.90;999.90;;;;;;;;;;4975838;28;20232;-70
2023/09/30 13:42:59;;;;;;;1999.90;999.90;;;;;;;;;;4975770;28;20408;-69
2023/09/30 13:45:44;;;;;;;1999.90;999.90;;;;;;;;;;4975609;28;20696;-70
2023/09/30 13:48:29;;;;;;;1999.90;999.90;;;;;;;;;;4975630;28;20231;-69
2023/09/30 13:51:15;;;;;;;1999.90;999.90;;;;;;;;;;4975595;28;20212;-70
2023/09/30 13:54:00;;;;;;;1999.90;999.90;;;;;;;;;;4975575;28;20213;-70
2023/09/30 13:56:46;;;;;;;1999.90;999.90;;;;;;;;;;4975013;28;20825;-70
2023/09/30 13:59:34;;;;;;;1999.90;999.90;;;;;;;;;;4975552;28;20260;-70
2023/09/30 14:02:19;;;;;;;1999.90;999.90;;;;;;;;;;4975343;28;20211;-70
2023/09/30 14:05:05;;;;;;;1999.90;999.90;;;;;;;;;;4975358;28;20317;-70
2023/09/30 14:07:54;;;;;;;1999.90;999.90;;;;;;;;;;4975291;28;20740;-71
2023/09/30 14:10:38;;;;;;;1999.90;999.90;;;;;;;;;;4975332;28;20207;-69
2023/09/30 14:13:23;;;;;;;1999.90;999.90;;;;;;;;;;4975182;28;20272;-70
2023/09/30 14:16:08;;;;;;;1999.90;999.90;;;;;;;;;;4974981;28;20215;-70
2023/09/30 14:18:53;;;;;;;1999.90;999.90;;;;;;;;;;4974877;28;20698;-70
2023/09/30 14:21:38;;;;;;;1999.90;999.90;;;;;;;;;;4975206;28;20265;-68
2023/09/30 14:24:24;;;;;;;1999.90;999.90;;;;;;;;;;4974999;28;20628;-70
2023/09/30 14:27:09;;;;;;;1999.90;999.90;;;;;;;;;;4974564;28;20245;-70
2023/09/30 14:29:55;;;;;;;1999.90;999.90;;;;;;;;;;4975346;28;20700;-69
2023/09/30 14:32:39;;;;;;;1999.90;999.90;;;;;;;;;;4974976;28;20212;-70
2023/09/30 14:35:24;;;;;;;1999.90;999.90;;;;;;;;;;4974652;28;20201;-70
2023/09/30 14:38:10;;;;;;;1999.90;999.90;;;;;;;;;;4974671;28;20316;-70
2023/09/30 14:40:57;;;;;;;1999.90;999.90;;;;;;;;;;4974742;28;20203;-69
2023/09/30 14:43:42;;;;;;;1999.90;999.90;;;;;;;;;;4974571;28;20212;-70
2023/09/30 14:46:27;;;;;;;1999.90;999.90;;;;;;;;;;4974391;28;20267;-68
2023/09/30 14:49:12;;;;;;;1999.90;999.90;;;;;;;;;;4974649;28;20206;-69
2023/09/30 14:51:57;;;;;;;1999.90;999.90;;;;;;;;;;4974516;28;20288;-68
2023/09/30 14:54:42;;;;;;;1999.90;999.90;;;;;;;;;;4974528;28;20694;-68
2023/09/30 14:57:29;;;;;;;1999.90;999.90;;;;;;;;;;4973978;28;20236;-68
2023/09/30 15:00:15;;;;;;;1999.90;999.90;;;;;;;;;;4974143;28;20220;-71
2023/09/30 15:03:00;;;;;;;1999.90;999.90;;;;;;;;;;4974421;28;20273;-68
2023/09/30 15:05:45;;;;;;;1999.90;999.90;;;;;;;;;;4974197;28;20682;-66
2023/09/30 15:08:31;;;;;;;1999.90;999.90;;;;;;;;;;4974106;28;20236;-68
2023/09/30 15:11:16;;;;;;;1999.90;999.90;;;;;;;;;;4974206;28;20199;-71
2023/09/30 15:14:04;;;;;;;1999.90;999.90;;;;;;;;;;4973717;28;20339;-70
2023/09/30 15:16:49;;;;;;;1999.90;999.90;;;;;;;;;;4973801;28;20228;-69
2023/09/30 15:19:34;;;;;;;1999.90;999.90;;;;;;;;;;4974214;28;20604;-68
2023/09/30 15:22:19;;;;;;;1999.90;999.90;;;;;;;;;;4973954;28;20708;-68
2023/09/30 15:25:05;;;;;;;1999.90;999.90;;;;;;;;;;4973590;28;20210;-68
2023/09/30 15:27:50;;;;;;;1999.90;999.90;;;;;;;;;;4974060;28;20232;-69
2023/09/30 15:30:36;;;;;;;1999.90;999.90;;;;;;;;;;4973943;28;20213;-68
2023/09/30 15:33:21;;;;;;;1999.90;999.90;;;;;;;;;;4973706;28;20218;-68
2023/09/30 15:36:10;;;;;;;1999.90;999.90;;;;;;;;;;4973719;28;20570;-68
2023/09/30 15:38:56;;;;;;;1999.90;999.90;;;;;;;;;;4974138;28;20344;-68
2023/09/30 15:41:41;;;;;;;1999.90;999.90;;;;;;;;;;4974128;28;20323;-68
2023/09/30 15:44:26;;;;;;;1999.90;999.90;;;;;;;;;;4973647;28;20670;-70
2023/09/30 15:47:12;;;;;;;1999.90;999.90;;;;;;;;;;4973350;28;20244;-69
2023/09/30 15:49:57;;;;;;;1999.90;999.90;;;;;;;;;;4973437;28;20576;-69
2023/09/30 15:52:41;;;;;;;1999.90;999.90;;;;;;;;;;4973524;28;20684;-69
2023/09/30 15:55:27;;;;;;;1999.90;999.90;;;;;;;;;;4973244;28;20572;-68
2023/09/30 15:58:11;;;;;;;1999.90;999.90;;;;;;;;;;4973690;28;20612;-69
2023/09/30 16:00:56;;;;;;;1999.90;999.90;;;;;;;;;;4973149;28;20234;-68
2023/09/30 16:03:43;;;;;;;1999.90;999.90;;;;;;;;;;4973564;28;20216;-67
2023/09/30 16:06:28;;;;;;;1999.90;999.90;;;;;;;;;;4973300;28;20605;-68
2023/09/30 16:09:13;;;;;;;1999.90;999.90;;;;;;;;;;4973425;28;20208;-68
2023/09/30 16:12:01;;;;;;;1999.90;999.90;;;;;;;;;;4973372;28;20247;-68
2023/09/30 16:14:45;;;;;;;1999.90;999.90;;;;;;;;;;4973092;28;20571;-69
2023/09/30 16:17:30;;;;;;;1999.90;999.90;;;;;;;;;;4972927;28;20220;-68
2023/09/30 16:20:18;;;;;;;1999.90;999.90;;;;;;;;;;4973134;28;20243;-68
2023/09/30 16:23:03;;;;;;;1999.90;999.90;;;;;;;;;;4973253;28;20213;-68